createdAt,value
2018-11-05T00:01:14.878Z,14.30
2018-11-05T00:03:43.454Z,15.13
2018-11-05T00:06:11.978Z,15.73
2018-11-05T00:08:40.675Z,13.97
2018-11-05T00:11:09.474Z,17.83
2018-11-05T00:13:38.063Z,15.63
2018-11-05T00:16:07.326Z,15.37
2018-11-05T00:18:36.031Z,16.40
2018-11-05T00:21:05.258Z,16.60
2018-11-05T00:23:33.799Z,17.33
2018-11-05T00:26:03.032Z,15.17
2018-11-05T00:28:32.024Z,15.97
2018-11-05T00:31:00.728Z,15.03
2018-11-05T00:33:30.157Z,14.83
2018-11-05T00:35:59.588Z,14.17
2018-11-05T00:38:28.119Z,14.63
2018-11-05T00:40:57.802Z,16.10
2018-11-05T00:43:26.370Z,14.17
2018-11-05T00:45:55.520Z,14.50
2018-11-05T00:48:24.025Z,15.33
2018-11-05T00:50:52.642Z,16.43
2018-11-05T00:53:21.227Z,15.40
2018-11-05T00:55:49.922Z,14.73
2018-11-05T00:58:18.477Z,13.00
2018-11-05T01:00:47.251Z,15.23
2018-11-05T01:03:15.808Z,15.03
2018-11-05T01:05:44.415Z,14.50
2018-11-05T01:08:12.992Z,14.67
2018-11-05T01:10:41.596Z,14.93
2018-11-05T01:13:10.149Z,15.60
2018-11-05T01:15:38.636Z,15.60
2018-11-05T01:18:08.183Z,14.77
2018-11-05T01:20:36.830Z,15.33
2018-11-05T01:23:05.475Z,16.40
2018-11-05T01:25:34.561Z,14.17
2018-11-05T01:28:03.346Z,15.57
2018-11-05T01:30:32.612Z,15.70
2018-11-05T01:33:01.217Z,15.53
2018-11-05T01:35:29.743Z,14.00
2018-11-05T01:37:58.728Z,14.77
2018-11-05T01:40:27.249Z,14.60
2018-11-05T01:42:55.875Z,14.60
2018-11-05T01:45:24.351Z,14.43
2018-11-05T01:47:53.988Z,14.97
2018-11-05T01:50:22.551Z,16.33
2018-11-05T01:52:51.097Z,15.67
2018-11-05T01:55:20.284Z,15.47
2018-11-05T01:57:49.058Z,15.67
2018-11-05T02:00:17.918Z,15.90
2018-11-05T02:02:47.653Z,14.63
2018-11-05T02:05:16.471Z,14.50
2018-11-05T02:07:46.548Z,15.67
2018-11-05T02:10:16.756Z,15.60
2018-11-05T02:12:45.843Z,15.63
2018-11-05T02:15:14.647Z,16.80
2018-11-05T02:17:44.173Z,16.13
2018-11-05T02:20:14.160Z,15.83
2018-11-05T02:22:42.683Z,15.20
2018-11-05T02:25:12.219Z,16.07
2018-11-05T02:27:41.224Z,16.10
2018-11-05T02:30:15.982Z,16.03
2018-11-05T02:32:45.415Z,16.20
2018-11-05T02:35:14.853Z,15.20
2018-11-05T02:37:44.248Z,16.33
2018-11-05T02:40:15.316Z,16.23
2018-11-05T02:42:44.410Z,15.03
2018-11-05T02:45:14.134Z,16.10
2018-11-05T02:47:42.848Z,16.07
2018-11-05T02:50:12.544Z,15.80
2018-11-05T02:52:41.956Z,16.57
2018-11-05T02:55:11.202Z,16.60
2018-11-05T02:57:39.878Z,17.07
2018-11-05T03:00:11.882Z,16.73
2018-11-05T03:02:41.302Z,16.20
2018-11-05T03:05:12.790Z,17.27
2018-11-05T03:07:41.670Z,17.17
2018-11-05T03:10:11.160Z,17.57
2018-11-05T03:12:40.497Z,17.00
2018-11-05T03:15:10.931Z,15.87
2018-11-05T03:17:39.976Z,15.80
2018-11-05T03:20:10.412Z,15.80
2018-11-05T03:22:39.641Z,18.70
2018-11-05T03:25:08.254Z,17.20
2018-11-05T03:27:38.037Z,16.50
2018-11-05T03:30:10.200Z,16.67
2018-11-05T03:32:38.790Z,16.53
2018-11-05T03:35:08.352Z,18.80
2018-11-05T03:37:37.853Z,16.83
2018-11-05T03:40:07.522Z,16.40
2018-11-05T03:42:36.908Z,17.53
2018-11-05T03:45:06.706Z,17.33
2018-11-05T03:47:36.177Z,17.83
2018-11-05T03:50:06.607Z,16.37
2018-11-05T03:52:35.135Z,17.73
2018-11-05T03:55:03.688Z,17.17
2018-11-05T03:57:32.191Z,16.73
2018-11-05T04:00:00.778Z,17.67
2018-11-05T04:02:29.325Z,19.90
2018-11-05T04:04:58.801Z,17.63
2018-11-05T04:07:27.444Z,18.57
2018-11-05T04:09:56.003Z,17.27
2018-11-05T04:12:25.549Z,17.93
2018-11-05T04:14:55.086Z,18.17
2018-11-05T04:17:24.519Z,20.03
2018-11-05T04:19:54.229Z,19.77
2018-11-05T04:22:22.870Z,17.60
2018-11-05T04:24:51.461Z,18.67
2018-11-05T04:27:20.895Z,18.50
2018-11-05T04:29:49.388Z,17.73
2018-11-05T04:32:18.024Z,18.50
2018-11-05T04:34:46.591Z,18.53
2018-11-05T04:37:15.137Z,18.87
2018-11-05T04:39:43.683Z,20.20
2018-11-05T04:42:12.921Z,19.37
2018-11-05T04:44:41.558Z,21.03
2018-11-05T04:47:10.181Z,19.27
2018-11-05T04:49:38.710Z,20.83
2018-11-05T04:52:07.289Z,20.87
2018-11-05T04:54:36.130Z,20.73
2018-11-05T04:57:04.707Z,19.10
2018-11-05T04:59:33.242Z,20.77
2018-11-05T05:02:01.815Z,24.13
2018-11-05T05:04:30.393Z,20.00
2018-11-05T05:06:58.962Z,21.20
2018-11-05T05:09:27.487Z,19.00
2018-11-05T05:11:56.743Z,18.77
2018-11-05T05:14:25.376Z,20.87
2018-11-05T05:16:53.967Z,20.57
2018-11-05T05:19:22.638Z,21.70
2018-11-05T05:21:51.819Z,20.10
2018-11-05T05:24:20.542Z,21.03
2018-11-05T05:26:49.029Z,19.83
2018-11-05T05:29:18.339Z,20.53
2018-11-05T05:31:46.817Z,20.20
2018-11-05T05:34:16.406Z,19.83
2018-11-05T05:36:45.058Z,19.70
2018-11-05T05:39:14.582Z,21.10
2018-11-05T05:41:43.139Z,20.80
2018-11-05T05:44:11.823Z,21.23
2018-11-05T05:46:40.318Z,22.10
2018-11-05T05:49:08.891Z,20.17
2018-11-05T05:51:38.126Z,21.13
2018-11-05T05:54:06.943Z,20.37
2018-11-05T05:56:35.535Z,20.37
2018-11-05T05:59:04.709Z,20.70
2018-11-05T06:01:34.502Z,21.37
2018-11-05T06:04:04.003Z,22.17
2018-11-05T06:06:33.119Z,20.73
2018-11-05T06:09:02.035Z,21.27
2018-11-05T06:11:31.510Z,21.23
2018-11-05T06:14:00.079Z,21.40
2018-11-05T06:16:28.667Z,22.67
2018-11-05T06:18:57.345Z,22.57
2018-11-05T06:21:26.818Z,20.97
2018-11-05T06:23:56.317Z,20.63
2018-11-05T06:26:24.851Z,23.03
2018-11-05T06:28:53.477Z,23.00
2018-11-05T06:31:22.038Z,20.97
2018-11-05T06:33:50.603Z,23.20
2018-11-05T06:36:20.100Z,22.53
2018-11-05T06:38:48.822Z,21.83
2018-11-05T06:41:17.427Z,21.13
2018-11-05T06:43:45.934Z,23.80
2018-11-05T06:46:15.165Z,21.83
2018-11-05T06:48:43.874Z,22.00
2018-11-05T06:51:13.144Z,21.40
2018-11-05T06:53:42.061Z,21.30
2018-11-05T06:56:10.616Z,23.03
2018-11-05T06:58:39.186Z,21.37
2018-11-05T07:01:07.719Z,23.87
2018-11-05T07:03:36.988Z,23.30
2018-11-05T07:06:05.878Z,22.53
2018-11-05T07:08:34.439Z,20.80
2018-11-05T07:11:03.089Z,23.30
2018-11-05T07:13:31.864Z,21.10
2018-11-05T07:16:00.415Z,20.83
2018-11-05T07:18:29.687Z,21.27
2018-11-05T07:20:59.471Z,24.63
2018-11-05T07:23:28.815Z,22.10
2018-11-05T07:25:57.367Z,21.73
2018-11-05T07:28:26.723Z,22.83
2018-11-05T07:30:55.445Z,20.37
2018-11-05T07:33:25.342Z,22.70
2018-11-05T07:35:54.648Z,22.27
2018-11-05T07:38:23.394Z,21.63
2018-11-05T07:40:52.020Z,21.83
2018-11-05T07:43:21.314Z,22.27
2018-11-05T07:45:50.386Z,21.27
2018-11-05T07:48:19.117Z,24.77
2018-11-05T07:50:49.322Z,24.93
2018-11-05T07:53:18.469Z,20.33
2018-11-05T07:55:46.994Z,21.50
2018-11-05T07:58:15.542Z,21.40
2018-11-05T08:00:49.259Z,22.97
2018-11-05T08:03:18.944Z,21.00
2018-11-05T08:05:48.087Z,23.60
2018-11-05T08:08:16.825Z,21.50
2018-11-05T08:10:46.392Z,23.40
2018-11-05T08:13:15.794Z,23.23
2018-11-05T08:15:44.428Z,22.03
2018-11-05T08:18:13.911Z,21.37
2018-11-05T08:20:42.539Z,21.30
2018-11-05T08:23:11.997Z,22.30
2018-11-05T08:25:41.587Z,20.47
2018-11-05T08:28:10.116Z,21.63
2018-11-05T08:30:38.692Z,21.37
2018-11-05T08:33:07.320Z,21.37
2018-11-05T08:35:36.899Z,20.57
2018-11-05T08:38:05.640Z,20.10
2018-11-05T08:40:34.987Z,21.87
2018-11-05T08:43:04.843Z,20.03
2018-11-05T08:45:33.609Z,21.43
2018-11-05T08:48:02.534Z,20.33
2018-11-05T08:50:31.173Z,21.23
2018-11-05T08:52:59.707Z,21.03
2018-11-05T08:55:28.467Z,21.97
2018-11-05T08:57:57.778Z,20.63
2018-11-05T09:00:31.597Z,21.27
2018-11-05T09:03:00.435Z,22.00
2018-11-05T09:05:29.108Z,22.70
2018-11-05T09:07:57.953Z,21.47
2018-11-05T09:10:26.738Z,20.53
2018-11-05T09:12:55.089Z,22.00
2018-11-05T09:15:24.580Z,20.50
2018-11-05T09:17:53.331Z,21.23
2018-11-05T09:20:22.136Z,22.67
2018-11-05T09:22:51.543Z,20.23
2018-11-05T09:25:20.202Z,23.13
2018-11-05T09:27:48.995Z,19.03
2018-11-05T09:30:18.966Z,22.43
2018-11-05T09:32:48.451Z,19.90
2018-11-05T09:35:16.992Z,21.43
2018-11-05T09:37:45.602Z,25.43
2018-11-05T09:40:16.447Z,19.73
2018-11-05T09:42:45.752Z,20.63
2018-11-05T09:45:19.236Z,22.13
2018-11-05T09:47:48.146Z,22.97
2018-11-05T09:50:17.493Z,21.77
2018-11-05T09:52:46.094Z,21.47
2018-11-05T09:55:15.403Z,20.83
2018-11-05T09:57:44.163Z,22.30
2018-11-05T10:00:18.015Z,21.57
2018-11-05T10:02:52.129Z,26.80
2018-11-05T10:05:21.707Z,20.67
2018-11-05T10:07:50.281Z,23.50
2018-11-05T10:10:19.855Z,20.63
2018-11-05T10:12:49.085Z,21.87
2018-11-05T10:15:18.511Z,21.20
2018-11-05T10:17:47.106Z,20.93
2018-11-05T10:20:18.567Z,22.23
2018-11-05T10:22:48.145Z,21.83
2018-11-05T10:25:17.753Z,21.37
2018-11-05T10:27:47.380Z,21.77
2018-11-05T10:30:18.077Z,22.50
2018-11-05T10:32:46.647Z,20.87
2018-11-05T10:35:16.242Z,20.70
2018-11-05T10:37:45.537Z,21.03
2018-11-05T10:40:16.176Z,20.27
2018-11-05T10:42:45.788Z,20.00
2018-11-05T10:45:15.639Z,20.37
2018-11-05T10:47:44.198Z,18.93
2018-11-05T10:50:14.064Z,19.30
2018-11-05T10:52:43.729Z,20.37
2018-11-05T10:55:12.354Z,19.73
2018-11-05T10:57:41.681Z,18.83
2018-11-05T11:00:19.098Z,19.33
2018-11-05T11:02:53.110Z,18.37
2018-11-05T11:05:22.287Z,19.30
2018-11-05T11:07:52.332Z,19.20
2018-11-05T11:10:20.930Z,19.50
2018-11-05T11:12:49.695Z,18.23
2018-11-05T11:15:18.326Z,19.07
2018-11-05T11:17:47.718Z,19.73
2018-11-05T11:20:17.371Z,20.43
2018-11-05T11:22:46.695Z,19.50
2018-11-05T11:25:15.236Z,18.93
2018-11-05T11:27:44.133Z,19.50
2018-11-05T11:30:13.889Z,17.23
2018-11-05T11:32:43.195Z,17.83
2018-11-05T11:35:12.422Z,19.43
2018-11-05T11:37:41.151Z,18.87
2018-11-05T11:40:14.895Z,18.77
2018-11-05T11:42:44.398Z,18.03
2018-11-05T11:45:13.868Z,23.17
2018-11-05T11:47:42.470Z,18.70
2018-11-05T11:50:12.772Z,18.13
2018-11-05T11:52:42.611Z,18.13
2018-11-05T11:55:13.269Z,20.17
2018-11-05T11:57:42.850Z,20.77
2018-11-05T12:00:16.051Z,18.87
2018-11-05T12:02:45.789Z,18.87
2018-11-05T12:05:15.343Z,17.23
2018-11-05T12:07:44.811Z,16.97
2018-11-05T12:10:16.508Z,20.03
2018-11-05T12:12:45.871Z,16.93
2018-11-05T12:15:16.325Z,17.47
2018-11-05T12:17:46.145Z,21.87
2018-11-05T12:20:15.991Z,21.27
2018-11-05T12:22:45.923Z,17.70
2018-11-05T12:25:14.474Z,21.23
2018-11-05T12:27:43.088Z,18.37
2018-11-05T12:30:15.319Z,18.33
2018-11-05T12:32:46.175Z,20.23
2018-11-05T12:35:15.550Z,17.83
2018-11-05T12:37:45.457Z,18.97
2018-11-05T12:40:15.448Z,19.27
2018-11-05T12:42:45.318Z,16.37
2018-11-05T12:45:13.913Z,19.23
2018-11-05T12:47:43.156Z,19.20
2018-11-05T12:50:15.688Z,18.77
2018-11-05T12:52:45.409Z,18.07
2018-11-05T12:55:14.883Z,18.83
2018-11-05T12:57:44.402Z,20.07
2018-11-05T13:00:16.686Z,17.50
2018-11-05T13:02:50.242Z,18.67
2018-11-05T13:05:19.011Z,17.57
2018-11-05T13:07:48.887Z,17.03
2018-11-05T13:10:17.694Z,19.17
2018-11-05T13:12:46.944Z,17.00
2018-11-05T13:15:15.782Z,17.13
2018-11-05T13:17:44.400Z,20.30
2018-11-05T13:20:15.326Z,20.03
2018-11-05T13:22:44.145Z,18.73
2018-11-05T13:25:12.984Z,17.57
2018-11-05T13:27:43.138Z,17.13
2018-11-05T13:30:12.485Z,17.40
2018-11-05T13:32:41.570Z,18.73
2018-11-05T13:35:19.263Z,17.40
2018-11-05T13:37:48.388Z,18.67
2018-11-05T13:40:18.580Z,17.30
2018-11-05T13:42:47.728Z,20.93
2018-11-05T13:45:17.544Z,17.13
2018-11-05T13:47:46.847Z,16.47
2018-11-05T13:50:16.250Z,16.37
2018-11-05T13:52:45.089Z,18.50
2018-11-05T13:55:14.851Z,16.87
2018-11-05T13:57:45.167Z,16.40
2018-11-05T14:00:16.610Z,16.40
2018-11-05T14:02:45.282Z,18.57
2018-11-05T14:05:14.941Z,19.60
2018-11-05T14:07:43.554Z,18.73
2018-11-05T14:10:19.128Z,21.10
2018-11-05T14:12:48.361Z,22.47
2018-11-05T14:15:17.031Z,18.37
2018-11-05T14:17:46.554Z,17.90
2018-11-05T14:20:17.170Z,18.03
2018-11-05T14:22:45.775Z,20.43
2018-11-05T14:25:15.907Z,19.60
2018-11-05T14:27:45.976Z,18.07
2018-11-05T14:30:15.317Z,18.47
2018-11-05T14:32:45.707Z,18.37
2018-11-05T14:35:14.304Z,18.77
2018-11-05T14:37:43.686Z,20.03
2018-11-05T14:40:13.983Z,19.87
2018-11-05T14:42:42.808Z,22.37
2018-11-05T14:45:13.266Z,20.17
2018-11-05T14:47:43.001Z,22.97
2018-11-05T14:50:14.385Z,21.30
2018-11-05T14:52:43.798Z,21.60
2018-11-05T14:55:14.521Z,20.10
2018-11-05T14:57:44.007Z,21.30
2018-11-05T15:00:15.897Z,26.07
2018-11-05T15:02:45.568Z,23.07
2018-11-05T15:05:14.727Z,22.80
2018-11-05T15:07:45.137Z,23.20
2018-11-05T15:10:28.103Z,23.17
2018-11-05T15:12:57.000Z,24.70
2018-11-05T15:15:25.546Z,25.03
2018-11-05T15:17:54.102Z,23.10
2018-11-05T15:20:23.666Z,24.87
2018-11-05T15:22:52.181Z,24.17
2018-11-05T15:25:21.858Z,24.00
2018-11-05T15:27:51.234Z,24.73
2018-11-05T15:30:21.904Z,26.43
2018-11-05T15:32:51.326Z,25.23
2018-11-05T15:35:19.950Z,30.47
2018-11-05T15:37:48.522Z,27.10
2018-11-05T15:40:18.350Z,23.57
2018-11-05T15:42:47.719Z,27.03
2018-11-05T15:45:17.753Z,26.50
2018-11-05T15:47:46.447Z,24.60
2018-11-05T15:50:18.049Z,24.53
2018-11-05T15:52:48.064Z,27.57
2018-11-05T15:55:16.580Z,24.17
2018-11-05T15:57:45.330Z,23.90
2018-11-05T16:00:17.417Z,26.13
2018-11-05T16:02:47.883Z,24.93
2018-11-05T16:05:16.464Z,27.47
2018-11-05T16:07:45.508Z,26.73
2018-11-05T16:10:14.641Z,25.20
2018-11-05T16:12:44.074Z,25.53
2018-11-05T16:15:13.242Z,26.37
2018-11-05T16:17:42.170Z,26.93
2018-11-05T16:20:13.312Z,27.00
2018-11-05T16:22:42.204Z,26.47
2018-11-05T16:25:11.042Z,27.37
2018-11-05T16:27:41.440Z,28.23
2018-11-05T16:30:13.383Z,26.47
2018-11-05T16:32:42.671Z,28.60
2018-11-05T16:35:11.342Z,27.10
2018-11-05T16:37:40.697Z,30.17
2018-11-05T16:40:14.932Z,28.87
2018-11-05T16:42:44.111Z,26.03
2018-11-05T16:45:13.078Z,29.73
2018-11-05T16:47:42.387Z,30.23
2018-11-05T16:50:16.086Z,26.77
2018-11-05T16:52:44.675Z,32.97
2018-11-05T16:55:14.396Z,31.87
2018-11-05T16:57:43.748Z,28.73
2018-11-05T17:00:13.261Z,29.87
2018-11-05T17:02:42.789Z,28.00
2018-11-05T17:05:11.422Z,30.90
2018-11-05T17:07:40.219Z,27.63
2018-11-05T17:10:10.502Z,28.00
2018-11-05T17:12:40.054Z,31.50
2018-11-05T17:15:10.704Z,32.10
2018-11-05T17:17:40.052Z,34.10
2018-11-05T17:20:10.685Z,28.87
2018-11-05T17:22:40.548Z,30.07
2018-11-05T17:25:10.037Z,31.40
2018-11-05T17:27:39.063Z,31.00
2018-11-05T17:30:10.784Z,31.17
2018-11-05T17:32:39.542Z,32.63
2018-11-05T17:35:08.245Z,32.70
2018-11-05T17:37:37.051Z,28.20
2018-11-05T17:40:08.535Z,30.97
2018-11-05T17:42:37.578Z,33.00
2018-11-05T17:45:07.855Z,30.10
2018-11-05T17:47:36.732Z,30.97
2018-11-05T17:50:07.467Z,29.73
2018-11-05T17:52:36.847Z,29.50
2018-11-05T17:55:07.678Z,28.47
2018-11-05T17:57:36.890Z,29.43
2018-11-05T18:00:08.098Z,26.33
2018-11-05T18:02:36.842Z,28.47
2018-11-05T18:05:05.619Z,28.43
2018-11-05T18:07:35.003Z,28.27
2018-11-05T18:10:04.700Z,28.90
2018-11-05T18:12:34.135Z,29.43
2018-11-05T18:15:03.107Z,30.27
2018-11-05T18:17:32.272Z,29.67
2018-11-05T18:20:01.028Z,30.23
2018-11-05T18:22:30.371Z,30.63
2018-11-05T18:24:59.206Z,29.53
2018-11-05T18:27:28.116Z,31.27
2018-11-05T18:29:58.239Z,26.00
2018-11-05T18:32:26.844Z,29.97
2018-11-05T18:34:56.319Z,29.73
2018-11-05T18:37:25.748Z,28.50
2018-11-05T18:39:56.153Z,31.07
2018-11-05T18:42:24.797Z,28.17
2018-11-05T18:44:54.185Z,26.63
2018-11-05T18:47:22.840Z,29.33
2018-11-05T18:49:51.692Z,32.13
2018-11-05T18:52:20.931Z,31.00
2018-11-05T18:54:49.663Z,29.53
2018-11-05T18:57:18.864Z,32.00
2018-11-05T18:59:48.235Z,29.87
2018-11-05T19:02:22.263Z,30.23
2018-11-05T19:04:51.239Z,30.50
2018-11-05T19:07:20.031Z,36.97
2018-11-05T19:09:48.745Z,28.37
2018-11-05T19:12:17.551Z,29.83
2018-11-05T19:14:46.921Z,28.90
2018-11-05T19:17:15.630Z,30.93
2018-11-05T19:19:44.290Z,28.53
2018-11-05T19:22:13.911Z,30.57
2018-11-05T19:24:42.534Z,30.97
2018-11-05T19:27:11.647Z,30.73
2018-11-05T19:29:40.216Z,33.23
2018-11-05T19:32:09.970Z,30.90
2018-11-05T19:34:39.543Z,34.87
2018-11-05T19:37:08.570Z,34.57
2018-11-05T19:39:37.642Z,31.33
2018-11-05T19:42:07.335Z,33.37
2018-11-05T19:44:36.388Z,31.07
2018-11-05T19:47:05.196Z,36.50
2018-11-05T19:49:33.860Z,33.77
2018-11-05T19:52:03.476Z,34.87
2018-11-05T19:54:32.998Z,34.67
2018-11-05T19:57:02.405Z,32.57
2018-11-05T19:59:31.054Z,31.50
2018-11-05T20:02:00.552Z,34.80
2018-11-05T20:04:30.052Z,32.40
2018-11-05T20:06:58.668Z,33.80
2018-11-05T20:09:28.223Z,34.27
2018-11-05T20:11:56.932Z,32.93
2018-11-05T20:14:25.711Z,37.87
2018-11-05T20:16:54.213Z,34.17
2018-11-05T20:19:23.408Z,33.37
2018-11-05T20:21:52.555Z,37.87
2018-11-05T20:24:21.168Z,35.73
2018-11-05T20:26:49.839Z,35.37
2018-11-05T20:29:18.984Z,32.60
2018-11-05T20:31:47.957Z,35.43
2018-11-05T20:34:16.778Z,34.70
2018-11-05T20:36:44.979Z,32.27
2018-11-05T20:39:13.751Z,33.77
2018-11-05T20:41:43.221Z,35.47
2018-11-05T20:44:13.132Z,33.77
2018-11-05T20:46:41.801Z,33.60
2018-11-05T20:49:10.230Z,36.83
2018-11-05T20:51:38.915Z,39.30
2018-11-05T20:54:07.476Z,40.47
2018-11-05T20:56:36.038Z,37.63
2018-11-05T20:59:05.260Z,38.33
2018-11-05T21:01:33.870Z,38.73
2018-11-05T21:04:02.400Z,36.63
2018-11-05T21:06:31.007Z,34.33
2018-11-05T21:09:00.482Z,37.40
2018-11-05T21:11:29.098Z,38.00
2018-11-05T21:13:57.738Z,39.70
2018-11-05T21:16:27.181Z,40.13
2018-11-05T21:18:55.854Z,36.63
2018-11-05T21:21:24.619Z,34.67
2018-11-05T21:23:53.263Z,34.43
2018-11-05T21:26:21.967Z,39.63
2018-11-05T21:28:50.648Z,33.13
2018-11-05T21:31:19.402Z,37.83
2018-11-05T21:33:47.914Z,36.40
2018-11-05T21:36:16.570Z,37.83
2018-11-05T21:38:45.184Z,36.20
2018-11-05T21:41:14.666Z,35.90
2018-11-05T21:43:43.289Z,33.33
2018-11-05T21:46:11.926Z,33.43
2018-11-05T21:48:42.015Z,36.53
2018-11-05T21:51:11.023Z,32.97
2018-11-05T21:53:39.768Z,31.93
2018-11-05T21:56:08.369Z,34.60
2018-11-05T21:58:36.930Z,37.63
2018-11-05T22:01:05.986Z,34.37
2018-11-05T22:03:35.435Z,39.77
2018-11-05T22:06:04.302Z,35.63
2018-11-05T22:08:32.900Z,36.27
2018-11-05T22:11:01.432Z,32.80
2018-11-05T22:13:30.061Z,35.70
2018-11-05T22:15:58.657Z,36.27
2018-11-05T22:18:27.467Z,33.10
2018-11-05T22:20:56.172Z,39.37
2018-11-05T22:23:24.792Z,41.00
2018-11-05T22:25:53.666Z,36.17
2018-11-05T22:28:22.264Z,40.40
2018-11-05T22:30:51.525Z,42.73
2018-11-05T22:33:20.129Z,35.93
2018-11-05T22:35:48.669Z,41.90
2018-11-05T22:38:17.416Z,38.60
2018-11-05T22:40:45.943Z,41.23
2018-11-05T22:43:14.663Z,37.80
2018-11-05T22:45:43.246Z,39.63
2018-11-05T22:48:11.911Z,42.27
2018-11-05T22:50:40.532Z,41.87
2018-11-05T22:53:09.824Z,38.67
2018-11-05T22:55:38.468Z,43.77
2018-11-05T22:58:07.234Z,37.17
2018-11-05T23:00:41.275Z,36.80
2018-11-05T23:03:15.143Z,38.93
2018-11-05T23:05:43.790Z,38.13
2018-11-05T23:08:12.372Z,38.50
2018-11-05T23:10:41.639Z,38.37
2018-11-05T23:13:11.292Z,39.30
2018-11-05T23:15:39.896Z,40.07
2018-11-05T23:18:08.557Z,39.50
2018-11-05T23:20:37.132Z,35.13
2018-11-05T23:23:06.842Z,38.00
2018-11-05T23:25:35.987Z,37.77
2018-11-05T23:28:04.622Z,36.10
2018-11-05T23:30:33.231Z,43.50
2018-11-05T23:33:01.739Z,37.60
2018-11-05T23:35:30.307Z,39.27
2018-11-05T23:37:58.900Z,37.97
2018-11-05T23:40:27.418Z,37.27
2018-11-05T23:42:56.563Z,40.03
2018-11-05T23:45:25.215Z,39.90
2018-11-05T23:47:53.771Z,38.47
2018-11-05T23:50:22.352Z,41.07
2018-11-05T23:52:50.914Z,41.90
2018-11-05T23:55:19.432Z,37.33
2018-11-05T23:57:48.007Z,39.80
